sensor_id;sensor_type;location;lat;lon;timestamp;P1;durP1;ratioP1;P2;durP2;ratioP2
17965;SDS011;9108;53.204;10.424;2024-03-17T00:00:24;31.02;;;3.63;;
17965;SDS011;9108;53.204;10.424;2024-03-17T00:02:51;31.23;;;3.22;;
17965;SDS011;9108;53.204;10.424;2024-03-17T00:05:18;34.95;;;3.40;;
17965;SDS011;9108;53.204;10.424;2024-03-17T00:07:46;34.03;;;3.67;;
17965;SDS011;9108;53.204;10.424;2024-03-17T00:10:12;35.70;;;3.60;;
17965;SDS011;9108;53.204;10.424;2024-03-17T00:12:40;39.00;;;3.22;;
17965;SDS011;9108;53.204;10.424;2024-03-17T00:15:07;28.90;;;3.10;;
17965;SDS011;9108;53.204;10.424;2024-03-17T00:17:34;26.35;;;3.00;;
17965;SDS011;9108;53.204;10.424;2024-03-17T00:20:00;36.95;;;3.63;;
17965;SDS011;9108;53.204;10.424;2024-03-17T00:22:33;39.75;;;3.45;;
17965;SDS011;9108;53.204;10.424;2024-03-17T00:25:03;28.98;;;3.15;;
17965;SDS011;9108;53.204;10.424;2024-03-17T00:27:31;33.63;;;3.60;;
17965;SDS011;9108;53.204;10.424;2024-03-17T00:29:57;28.35;;;3.45;;
17965;SDS011;9108;53.204;10.424;2024-03-17T00:32:24;30.60;;;3.30;;
17965;SDS011;9108;53.204;10.424;2024-03-17T00:34:50;31.70;;;3.30;;
17965;SDS011;9108;53.204;10.424;2024-03-17T00:37:18;26.92;;;3.03;;
17965;SDS011;9108;53.204;10.424;2024-03-17T00:39:44;29.42;;;3.72;;
17965;SDS011;9108;53.204;10.424;2024-03-17T00:42:13;36.63;;;3.22;;
17965;SDS011;9108;53.204;10.424;2024-03-17T00:44:39;29.15;;;3.10;;
17965;SDS011;9108;53.204;10.424;2024-03-17T00:47:06;35.85;;;3.47;;
17965;SDS011;9108;53.204;10.424;2024-03-17T00:49:33;29.08;;;3.35;;
17965;SDS011;9108;53.204;10.424;2024-03-17T00:52:00;31.30;;;2.95;;
17965;SDS011;9108;53.204;10.424;2024-03-17T00:54:27;33.55;;;3.70;;
17965;SDS011;9108;53.204;10.424;2024-03-17T00:56:54;41.65;;;3.53;;
17965;SDS011;9108;53.204;10.424;2024-03-17T00:59:21;30.27;;;3.17;;
17965;SDS011;9108;53.204;10.424;2024-03-17T06:31:03;18.10;;;2.83;;
17965;SDS011;9108;53.204;10.424;2024-03-17T06:33:32;14.43;;;2.35;;
17965;SDS011;9108;53.204;10.424;2024-03-17T06:36:01;14.23;;;2.10;;
17965;SDS011;9108;53.204;10.424;2024-03-17T06:38:29;12.80;;;2.60;;
17965;SDS011;9108;53.204;10.424;2024-03-17T06:40:56;14.60;;;2.22;;
17965;SDS011;9108;53.204;10.424;2024-03-17T06:43:23;16.38;;;2.42;;
17965;SDS011;9108;53.204;10.424;2024-03-17T06:45:54;17.25;;;2.70;;
17965;SDS011;9108;53.204;10.424;2024-03-17T06:48:23;16.42;;;2.63;;
17965;SDS011;9108;53.204;10.424;2024-03-17T06:50:50;13.98;;;2.63;;
17965;SDS011;9108;53.204;10.424;2024-03-17T06:53:22;16.23;;;3.00;;
17965;SDS011;9108;53.204;10.424;2024-03-17T06:55:54;14.30;;;3.00;;
17965;SDS011;9108;53.204;10.424;2024-03-17T06:58:22;16.10;;;3.15;;
17965;SDS011;9108;53.204;10.424;2024-03-17T07:01:11;12.80;;;2.72;;
17965;SDS011;9108;53.204;10.424;2024-03-17T07:03:47;15.02;;;3.17;;
17965;SDS011;9108;53.204;10.424;2024-03-17T07:06:16;11.10;;;3.20;;
17965;SDS011;9108;53.204;10.424;2024-03-17T07:09:04;13.30;;;2.67;;
17965;SDS011;9108;53.204;10.424;2024-03-17T07:11:50;11.88;;;2.83;;
17965;SDS011;9108;53.204;10.424;2024-03-17T07:14:41;13.43;;;3.30;;
17965;SDS011;9108;53.204;10.424;2024-03-17T07:17:16;17.70;;;3.90;;
17965;SDS011;9108;53.204;10.424;2024-03-17T07:20:02;13.70;;;3.27;;
17965;SDS011;9108;53.204;10.424;2024-03-17T07:22:43;13.82;;;3.20;;
17965;SDS011;9108;53.204;10.424;2024-03-17T07:25:32;12.70;;;3.00;;
17965;SDS011;9108;53.204;10.424;2024-03-17T07:28:08;13.77;;;2.80;;
17965;SDS011;9108;53.204;10.424;2024-03-17T07:31:02;11.60;;;2.60;;
17965;SDS011;9108;53.204;10.424;2024-03-17T07:36:45;12.15;;;3.03;;
17965;SDS011;9108;53.204;10.424;2024-03-17T07:39:37;15.95;;;3.45;;
17965;SDS011;9108;53.204;10.424;2024-03-17T07:42:33;14.10;;;3.22;;
17965;SDS011;9108;53.204;10.424;2024-03-17T07:45:07;13.45;;;3.28;;
17965;SDS011;9108;53.204;10.424;2024-03-17T07:47:40;11.18;;;3.10;;
17965;SDS011;9108;53.204;10.424;2024-03-17T07:50:10;12.63;;;3.10;;
17965;SDS011;9108;53.204;10.424;2024-03-17T07:52:39;12.40;;;3.00;;
17965;SDS011;9108;53.204;10.424;2024-03-17T07:55:06;13.75;;;3.30;;
17965;SDS011;9108;53.204;10.424;2024-03-17T07:57:34;12.27;;;3.10;;
17965;SDS011;9108;53.204;10.424;2024-03-17T08:00:01;13.45;;;3.28;;
17965;SDS011;9108;53.204;10.424;2024-03-17T08:02:29;13.02;;;2.97;;
17965;SDS011;9108;53.204;10.424;2024-03-17T08:04:56;12.70;;;3.03;;
17965;SDS011;9108;53.204;10.424;2024-03-17T08:07:23;16.95;;;3.63;;
17965;SDS011;9108;53.204;10.424;2024-03-17T08:09:52;14.60;;;3.27;;
17965;SDS011;9108;53.204;10.424;2024-03-17T08:12:19;12.32;;;2.83;;
17965;SDS011;9108;53.204;10.424;2024-03-17T08:14:46;15.85;;;3.00;;
17965;SDS011;9108;53.204;10.424;2024-03-17T08:17:13;14.32;;;2.85;;
17965;SDS011;9108;53.204;10.424;2024-03-17T08:19:40;14.00;;;2.50;;
17965;SDS011;9108;53.204;10.424;2024-03-17T08:22:07;13.02;;;2.38;;
17965;SDS011;9108;53.204;10.424;2024-03-17T08:24:34;11.83;;;2.37;;
17965;SDS011;9108;53.204;10.424;2024-03-17T08:27:04;13.27;;;2.72;;
17965;SDS011;9108;53.204;10.424;2024-03-17T08:29:31;14.73;;;2.90;;
17965;SDS011;9108;53.204;10.424;2024-03-17T08:31:59;16.15;;;2.22;;
17965;SDS011;9108;53.204;10.424;2024-03-17T08:34:26;14.88;;;2.30;;
17965;SDS011;9108;53.204;10.424;2024-03-17T08:36:53;12.02;;;2.20;;
17965;SDS011;9108;53.204;10.424;2024-03-17T08:39:21;12.38;;;2.15;;
17965;SDS011;9108;53.204;10.424;2024-03-17T08:41:48;14.95;;;2.65;;
17965;SDS011;9108;53.204;10.424;2024-03-17T08:44:17;13.90;;;2.30;;
17965;SDS011;9108;53.204;10.424;2024-03-17T08:46:44;13.05;;;2.20;;
17965;SDS011;9108;53.204;10.424;2024-03-17T08:49:11;12.10;;;2.17;;
17965;SDS011;9108;53.204;10.424;2024-03-17T08:51:38;14.77;;;2.40;;
17965;SDS011;9108;53.204;10.424;2024-03-17T08:54:05;15.13;;;2.63;;
17965;SDS011;9108;53.204;10.424;2024-03-17T08:56:32;11.40;;;2.13;;
17965;SDS011;9108;53.204;10.424;2024-03-17T08:59:00;13.63;;;2.20;;
17965;SDS011;9108;53.204;10.424;2024-03-17T09:01:29;16.80;;;2.10;;
17965;SDS011;9108;53.204;10.424;2024-03-17T09:03:57;11.90;;;1.80;;
17965;SDS011;9108;53.204;10.424;2024-03-17T09:06:26;9.55;;;1.60;;
17965;SDS011;9108;53.204;10.424;2024-03-17T09:08:55;11.63;;;1.75;;
17965;SDS011;9108;53.204;10.424;2024-03-17T09:11:22;9.88;;;1.90;;
17965;SDS011;9108;53.204;10.424;2024-03-17T09:13:52;11.90;;;2.00;;
17965;SDS011;9108;53.204;10.424;2024-03-17T09:16:20;9.27;;;1.70;;
17965;SDS011;9108;53.204;10.424;2024-03-17T09:18:49;12.32;;;1.90;;
17965;SDS011;9108;53.204;10.424;2024-03-17T09:21:16;10.32;;;1.60;;
17965;SDS011;9108;53.204;10.424;2024-03-17T09:23:43;10.32;;;1.58;;
17965;SDS011;9108;53.204;10.424;2024-03-17T09:26:11;8.57;;;1.50;;
17965;SDS011;9108;53.204;10.424;2024-03-17T09:28:40;10.98;;;1.63;;
17965;SDS011;9108;53.204;10.424;2024-03-17T09:31:09;10.15;;;2.08;;
17965;SDS011;9108;53.204;10.424;2024-03-17T09:33:37;9.13;;;1.55;;
17965;SDS011;9108;53.204;10.424;2024-03-17T09:36:06;10.53;;;1.50;;
17965;SDS011;9108;53.204;10.424;2024-03-17T09:38:36;8.68;;;1.50;;
17965;SDS011;9108;53.204;10.424;2024-03-17T09:41:03;9.43;;;1.58;;
17965;SDS011;9108;53.204;10.424;2024-03-17T09:43:31;9.05;;;1.55;;
17965;SDS011;9108;53.204;10.424;2024-03-17T09:46:01;11.25;;;1.73;;
17965;SDS011;9108;53.204;10.424;2024-03-17T09:48:28;11.05;;;1.55;;
17965;SDS011;9108;53.204;10.424;2024-03-17T09:50:56;6.65;;;1.00;;
17965;SDS011;9108;53.204;10.424;2024-03-17T09:53:25;11.43;;;1.60;;
17965;SDS011;9108;53.204;10.424;2024-03-17T09:55:55;9.68;;;1.70;;
17965;SDS011;9108;53.204;10.424;2024-03-17T09:58:23;6.93;;;1.30;;
17965;SDS011;9108;53.204;10.424;2024-03-17T10:00:51;7.07;;;1.27;;
17965;SDS011;9108;53.204;10.424;2024-03-17T10:06:05;8.00;;;1.60;;
17965;SDS011;9108;53.204;10.424;2024-03-17T10:08:34;8.45;;;1.40;;
17965;SDS011;9108;53.204;10.424;2024-03-17T10:11:06;9.65;;;1.42;;
17965;SDS011;9108;53.204;10.424;2024-03-17T10:13:34;7.70;;;1.25;;
17965;SDS011;9108;53.204;10.424;2024-03-17T10:16:02;7.75;;;1.30;;
17965;SDS011;9108;53.204;10.424;2024-03-17T10:18:29;7.25;;;1.40;;
17965;SDS011;9108;53.204;10.424;2024-03-17T10:20:57;6.93;;;1.20;;
17965;SDS011;9108;53.204;10.424;2024-03-17T10:23:26;7.10;;;1.20;;
17965;SDS011;9108;53.204;10.424;2024-03-17T10:25:55;9.05;;;1.05;;
17965;SDS011;9108;53.204;10.424;2024-03-17T10:28:22;7.45;;;1.30;;
17965;SDS011;9108;53.204;10.424;2024-03-17T10:30:59;9.03;;;1.20;;
17965;SDS011;9108;53.204;10.424;2024-03-17T10:33:26;12.02;;;1.35;;
17965;SDS011;9108;53.204;10.424;2024-03-17T10:36:02;7.68;;;1.20;;
17965;SDS011;9108;53.204;10.424;2024-03-17T10:38:30;6.73;;;1.30;;
17965;SDS011;9108;53.204;10.424;2024-03-17T10:41:01;8.38;;;1.30;;
17965;SDS011;9108;53.204;10.424;2024-03-17T10:43:28;8.85;;;1.40;;
17965;SDS011;9108;53.204;10.424;2024-03-17T10:45:56;8.60;;;1.30;;
17965;SDS011;9108;53.204;10.424;2024-03-17T10:48:26;8.00;;;1.30;;
17965;SDS011;9108;53.204;10.424;2024-03-17T10:50:53;6.50;;;1.35;;
17965;SDS011;9108;53.204;10.424;2024-03-17T10:53:23;7.85;;;1.30;;
17965;SDS011;9108;53.204;10.424;2024-03-17T10:55:55;7.93;;;1.10;;
17965;SDS011;9108;53.204;10.424;2024-03-17T10:58:31;8.25;;;1.30;;
17965;SDS011;9108;53.204;10.424;2024-03-17T11:01:00;8.25;;;1.40;;
17965;SDS011;9108;53.204;10.424;2024-03-17T11:03:28;6.40;;;1.20;;
17965;SDS011;9108;53.204;10.424;2024-03-17T11:05:56;9.05;;;1.55;;
17965;SDS011;9108;53.204;10.424;2024-03-17T11:08:23;8.02;;;1.30;;
17965;SDS011;9108;53.204;10.424;2024-03-17T11:10:51;6.28;;;1.00;;
17965;SDS011;9108;53.204;10.424;2024-03-17T11:13:22;6.70;;;1.10;;
17965;SDS011;9108;53.204;10.424;2024-03-17T11:15:51;8.20;;;1.10;;
17965;SDS011;9108;53.204;10.424;2024-03-17T11:18:31;7.57;;;1.38;;
17965;SDS011;9108;53.204;10.424;2024-03-17T11:20:59;5.90;;;1.27;;
17965;SDS011;9108;53.204;10.424;2024-03-17T11:23:32;8.00;;;1.17;;
17965;SDS011;9108;53.204;10.424;2024-03-17T11:25:59;7.25;;;1.17;;
17965;SDS011;9108;53.204;10.424;2024-03-17T11:31:32;7.85;;;1.27;;
17965;SDS011;9108;53.204;10.424;2024-03-17T11:34:00;5.82;;;1.10;;
17965;SDS011;9108;53.204;10.424;2024-03-17T11:36:36;9.07;;;1.20;;
17965;SDS011;9108;53.204;10.424;2024-03-17T11:39:04;6.38;;;1.13;;
17965;SDS011;9108;53.204;10.424;2024-03-17T11:41:36;7.60;;;1.30;;
17965;SDS011;9108;53.204;10.424;2024-03-17T11:44:15;5.97;;;1.23;;
17965;SDS011;9108;53.204;10.424;2024-03-17T11:46:45;6.85;;;1.38;;
17965;SDS011;9108;53.204;10.424;2024-03-17T11:49:16;9.38;;;1.30;;
17965;SDS011;9108;53.204;10.424;2024-03-17T11:51:43;6.88;;;1.27;;
17965;SDS011;9108;53.204;10.424;2024-03-17T11:54:13;11.63;;;1.75;;
17965;SDS011;9108;53.204;10.424;2024-03-17T11:56:43;5.53;;;1.20;;
17965;SDS011;9108;53.204;10.424;2024-03-17T11:59:10;8.80;;;1.10;;
17965;SDS011;9108;53.204;10.424;2024-03-17T12:01:37;9.07;;;1.23;;
17965;SDS011;9108;53.204;10.424;2024-03-17T12:04:05;9.87;;;1.20;;
17965;SDS011;9108;53.204;10.424;2024-03-17T12:06:32;9.02;;;1.48;;
17965;SDS011;9108;53.204;10.424;2024-03-17T12:09:08;8.60;;;1.30;;
17965;SDS011;9108;53.204;10.424;2024-03-17T12:11:36;10.05;;;1.63;;
17965;SDS011;9108;53.204;10.424;2024-03-17T12:16:49;6.85;;;1.00;;
17965;SDS011;9108;53.204;10.424;2024-03-17T12:19:18;8.30;;;1.30;;
17965;SDS011;9108;53.204;10.424;2024-03-17T12:21:45;9.38;;;1.35;;
17965;SDS011;9108;53.204;10.424;2024-03-17T12:24:15;7.32;;;1.40;;
17965;SDS011;9108;53.204;10.424;2024-03-17T12:26:43;6.00;;;1.20;;
17965;SDS011;9108;53.204;10.424;2024-03-17T12:29:22;6.82;;;1.23;;
17965;SDS011;9108;53.204;10.424;2024-03-17T12:31:50;6.90;;;1.30;;
17965;SDS011;9108;53.204;10.424;2024-03-17T12:34:21;6.27;;;1.10;;
17965;SDS011;9108;53.204;10.424;2024-03-17T12:36:53;7.32;;;1.17;;
17965;SDS011;9108;53.204;10.424;2024-03-17T12:39:20;7.18;;;1.17;;
17965;SDS011;9108;53.204;10.424;2024-03-17T12:42:03;7.68;;;1.30;;
17965;SDS011;9108;53.204;10.424;2024-03-17T12:44:29;6.55;;;0.95;;
17965;SDS011;9108;53.204;10.424;2024-03-17T12:46:57;6.30;;;1.10;;
17965;SDS011;9108;53.204;10.424;2024-03-17T12:49:27;6.15;;;1.10;;
17965;SDS011;9108;53.204;10.424;2024-03-17T12:51:54;7.18;;;1.20;;
17965;SDS011;9108;53.204;10.424;2024-03-17T12:54:21;7.15;;;1.20;;
17965;SDS011;9108;53.204;10.424;2024-03-17T12:56:49;8.10;;;1.33;;
17965;SDS011;9108;53.204;10.424;2024-03-17T12:59:38;7.90;;;1.23;;
17965;SDS011;9108;53.204;10.424;2024-03-17T13:02:23;7.30;;;1.05;;
17965;SDS011;9108;53.204;10.424;2024-03-17T13:05:06;6.43;;;1.20;;
17965;SDS011;9108;53.204;10.424;2024-03-17T13:07:34;8.32;;;1.20;;
17965;SDS011;9108;53.204;10.424;2024-03-17T13:10:02;8.68;;;1.20;;
17965;SDS011;9108;53.204;10.424;2024-03-17T13:12:29;6.55;;;1.17;;
17965;SDS011;9108;53.204;10.424;2024-03-17T13:14:56;6.90;;;1.20;;
17965;SDS011;9108;53.204;10.424;2024-03-17T13:17:23;9.50;;;1.15;;
17965;SDS011;9108;53.204;10.424;2024-03-17T13:19:50;7.77;;;1.17;;
17965;SDS011;9108;53.204;10.424;2024-03-17T13:22:19;9.05;;;1.30;;
17965;SDS011;9108;53.204;10.424;2024-03-17T13:24:46;7.55;;;1.40;;
17965;SDS011;9108;53.204;10.424;2024-03-17T13:27:13;6.95;;;1.20;;
17965;SDS011;9108;53.204;10.424;2024-03-17T13:29:41;7.40;;;1.20;;
17965;SDS011;9108;53.204;10.424;2024-03-17T13:32:09;7.30;;;1.15;;
17965;SDS011;9108;53.204;10.424;2024-03-17T13:34:36;7.55;;;1.25;;
17965;SDS011;9108;53.204;10.424;2024-03-17T13:37:03;5.82;;;0.95;;
17965;SDS011;9108;53.204;10.424;2024-03-17T13:39:32;6.47;;;1.25;;
17965;SDS011;9108;53.204;10.424;2024-03-17T13:41:59;7.20;;;1.38;;
17965;SDS011;9108;53.204;10.424;2024-03-17T13:44:28;7.00;;;1.10;;
17965;SDS011;9108;53.204;10.424;2024-03-17T13:46:56;7.88;;;1.15;;
17965;SDS011;9108;53.204;10.424;2024-03-17T13:49:23;7.53;;;1.15;;
17965;SDS011;9108;53.204;10.424;2024-03-17T13:51:51;6.78;;;1.15;;
17965;SDS011;9108;53.204;10.424;2024-03-17T13:54:18;5.55;;;1.02;;
17965;SDS011;9108;53.204;10.424;2024-03-17T13:56:48;8.70;;;1.30;;
17965;SDS011;9108;53.204;10.424;2024-03-17T13:59:15;7.05;;;1.30;;
17965;SDS011;9108;53.204;10.424;2024-03-17T14:01:42;5.65;;;1.23;;
17965;SDS011;9108;53.204;10.424;2024-03-17T14:04:12;8.95;;;1.27;;
17965;SDS011;9108;53.204;10.424;2024-03-17T14:06:40;5.80;;;0.98;;
17965;SDS011;9108;53.204;10.424;2024-03-17T14:09:07;7.75;;;1.20;;
17965;SDS011;9108;53.204;10.424;2024-03-17T14:11:35;6.28;;;1.13;;
17965;SDS011;9108;53.204;10.424;2024-03-17T14:14:05;7.30;;;1.20;;
17965;SDS011;9108;53.204;10.424;2024-03-17T14:16:33;6.28;;;1.10;;
17965;SDS011;9108;53.204;10.424;2024-03-17T14:19:00;7.80;;;1.30;;
17965;SDS011;9108;53.204;10.424;2024-03-17T14:21:27;7.80;;;1.45;;
17965;SDS011;9108;53.204;10.424;2024-03-17T14:23:55;9.32;;;1.48;;
17965;SDS011;9108;53.204;10.424;2024-03-17T14:26:22;6.00;;;1.10;;
17965;SDS011;9108;53.204;10.424;2024-03-17T14:28:50;6.80;;;1.20;;
17965;SDS011;9108;53.204;10.424;2024-03-17T14:31:20;6.65;;;1.40;;
17965;SDS011;9108;53.204;10.424;2024-03-17T14:33:47;10.80;;;1.50;;
17965;SDS011;9108;53.204;10.424;2024-03-17T14:36:15;9.00;;;1.50;;
17965;SDS011;9108;53.204;10.424;2024-03-17T14:38:43;10.77;;;1.50;;
17965;SDS011;9108;53.204;10.424;2024-03-17T14:41:10;9.30;;;1.42;;
17965;SDS011;9108;53.204;10.424;2024-03-17T14:43:37;8.07;;;1.30;;
17965;SDS011;9108;53.204;10.424;2024-03-17T14:46:05;9.97;;;1.37;;
17965;SDS011;9108;53.204;10.424;2024-03-17T14:48:36;7.63;;;1.50;;
17965;SDS011;9108;53.204;10.424;2024-03-17T14:51:04;7.53;;;1.30;;
17965;SDS011;9108;53.204;10.424;2024-03-17T14:53:31;10.30;;;1.38;;
17965;SDS011;9108;53.204;10.424;2024-03-17T14:55:58;10.95;;;1.50;;
17965;SDS011;9108;53.204;10.424;2024-03-17T14:58:25;9.45;;;1.70;;
17965;SDS011;9108;53.204;10.424;2024-03-17T15:00:52;9.98;;;1.83;;
17965;SDS011;9108;53.204;10.424;2024-03-17T15:03:20;9.38;;;1.55;;
17965;SDS011;9108;53.204;10.424;2024-03-17T15:05:48;10.20;;;1.40;;
17965;SDS011;9108;53.204;10.424;2024-03-17T15:08:17;12.82;;;1.88;;
17965;SDS011;9108;53.204;10.424;2024-03-17T15:10:44;13.38;;;1.50;;
17965;SDS011;9108;53.204;10.424;2024-03-17T15:13:11;10.00;;;1.50;;
17965;SDS011;9108;53.204;10.424;2024-03-17T15:15:39;10.60;;;1.70;;
17965;SDS011;9108;53.204;10.424;2024-03-17T15:18:09;9.75;;;1.50;;
17965;SDS011;9108;53.204;10.424;2024-03-17T15:20:37;12.18;;;1.55;;
17965;SDS011;9108;53.204;10.424;2024-03-17T15:23:06;10.57;;;1.87;;
17965;SDS011;9108;53.204;10.424;2024-03-17T15:25:34;10.27;;;1.60;;
17965;SDS011;9108;53.204;10.424;2024-03-17T15:28:01;10.38;;;1.70;;
17965;SDS011;9108;53.204;10.424;2024-03-17T15:30:28;11.15;;;1.52;;
17965;SDS011;9108;53.204;10.424;2024-03-17T15:32:56;12.07;;;1.88;;
17965;SDS011;9108;53.204;10.424;2024-03-17T15:35:23;10.05;;;1.58;;
17965;SDS011;9108;53.204;10.424;2024-03-17T15:37:55;10.40;;;1.80;;
17965;SDS011;9108;53.204;10.424;2024-03-17T15:40:23;10.88;;;1.73;;
17965;SDS011;9108;53.204;10.424;2024-03-17T15:42:50;10.95;;;1.60;;
17965;SDS011;9108;53.204;10.424;2024-03-17T15:45:18;10.73;;;1.58;;
17965;SDS011;9108;53.204;10.424;2024-03-17T15:47:46;11.93;;;1.77;;
17965;SDS011;9108;53.204;10.424;2024-03-17T15:50:13;10.10;;;1.60;;
17965;SDS011;9108;53.204;10.424;2024-03-17T15:52:40;10.20;;;2.03;;
17965;SDS011;9108;53.204;10.424;2024-03-17T15:55:09;12.60;;;2.05;;
17965;SDS011;9108;53.204;10.424;2024-03-17T15:57:38;11.95;;;1.98;;
17965;SDS011;9108;53.204;10.424;2024-03-17T16:00:05;12.68;;;2.10;;
17965;SDS011;9108;53.204;10.424;2024-03-17T16:02:34;13.00;;;2.38;;
17965;SDS011;9108;53.204;10.424;2024-03-17T16:05:01;11.93;;;2.45;;
17965;SDS011;9108;53.204;10.424;2024-03-17T16:07:29;8.48;;;1.50;;
17965;SDS011;9108;53.204;10.424;2024-03-17T16:09:56;10.43;;;1.77;;
17965;SDS011;9108;53.204;10.424;2024-03-17T16:12:24;12.57;;;1.83;;
17965;SDS011;9108;53.204;10.424;2024-03-17T16:14:52;14.13;;;1.95;;
17965;SDS011;9108;53.204;10.424;2024-03-17T16:17:25;8.88;;;1.60;;
17965;SDS011;9108;53.204;10.424;2024-03-17T16:19:54;11.95;;;1.90;;
17965;SDS011;9108;53.204;10.424;2024-03-17T16:22:23;13.30;;;2.10;;
17965;SDS011;9108;53.204;10.424;2024-03-17T16:24:50;12.90;;;2.30;;
17965;SDS011;9108;53.204;10.424;2024-03-17T16:27:18;14.68;;;2.10;;
17965;SDS011;9108;53.204;10.424;2024-03-17T16:29:45;11.38;;;2.38;;
17965;SDS011;9108;53.204;10.424;2024-03-17T16:32:13;13.93;;;2.22;;
17965;SDS011;9108;53.204;10.424;2024-03-17T16:34:42;11.75;;;2.47;;
17965;SDS011;9108;53.204;10.424;2024-03-17T16:37:10;12.93;;;2.40;;
17965;SDS011;9108;53.204;10.424;2024-03-17T16:39:37;12.60;;;1.90;;
17965;SDS011;9108;53.204;10.424;2024-03-17T16:42:04;13.53;;;2.30;;
17965;SDS011;9108;53.204;10.424;2024-03-17T16:44:35;15.60;;;2.70;;
17965;SDS011;9108;53.204;10.424;2024-03-17T16:49:51;12.65;;;2.40;;
17965;SDS011;9108;53.204;10.424;2024-03-17T16:52:20;14.25;;;2.17;;
17965;SDS011;9108;53.204;10.424;2024-03-17T16:54:48;17.90;;;3.15;;
17965;SDS011;9108;53.204;10.424;2024-03-17T16:57:15;16.40;;;2.40;;
17965;SDS011;9108;53.204;10.424;2024-03-17T16:59:43;15.10;;;2.50;;
17965;SDS011;9108;53.204;10.424;2024-03-17T17:02:12;18.02;;;3.60;;
17965;SDS011;9108;53.204;10.424;2024-03-17T17:04:41;13.15;;;2.70;;
17965;SDS011;9108;53.204;10.424;2024-03-17T17:07:10;14.85;;;3.78;;
17965;SDS011;9108;53.204;10.424;2024-03-17T17:09:37;15.75;;;2.33;;
17965;SDS011;9108;53.204;10.424;2024-03-17T17:12:05;14.95;;;2.70;;
17965;SDS011;9108;53.204;10.424;2024-03-17T17:14:33;15.70;;;2.78;;
17965;SDS011;9108;53.204;10.424;2024-03-17T17:17:06;14.35;;;2.50;;
17965;SDS011;9108;53.204;10.424;2024-03-17T17:19:34;12.77;;;2.13;;
17965;SDS011;9108;53.204;10.424;2024-03-17T17:22:02;14.40;;;1.88;;
17965;SDS011;9108;53.204;10.424;2024-03-17T17:24:31;13.05;;;2.35;;
17965;SDS011;9108;53.204;10.424;2024-03-17T17:26:58;13.57;;;2.47;;
17965;SDS011;9108;53.204;10.424;2024-03-17T17:29:26;12.75;;;2.42;;
17965;SDS011;9108;53.204;10.424;2024-03-17T17:31:53;24.38;;;8.07;;
17965;SDS011;9108;53.204;10.424;2024-03-17T17:34:21;42.20;;;14.53;;
17965;SDS011;9108;53.204;10.424;2024-03-17T17:36:48;46.70;;;17.08;;
17965;SDS011;9108;53.204;10.424;2024-03-17T17:39:16;61.60;;;23.58;;
17965;SDS011;9108;53.204;10.424;2024-03-17T17:41:45;150.10;;;56.17;;
17965;SDS011;9108;53.204;10.424;2024-03-17T17:44:12;46.58;;;19.38;;
17965;SDS011;9108;53.204;10.424;2024-03-17T17:46:40;32.97;;;15.45;;
17965;SDS011;9108;53.204;10.424;2024-03-17T17:49:07;20.15;;;8.05;;
17965;SDS011;9108;53.204;10.424;2024-03-17T17:51:36;19.25;;;7.90;;
17965;SDS011;9108;53.204;10.424;2024-03-17T17:54:07;13.27;;;4.00;;
17965;SDS011;9108;53.204;10.424;2024-03-17T17:56:34;10.13;;;2.55;;
17965;SDS011;9108;53.204;10.424;2024-03-17T17:59:02;9.30;;;2.25;;
17965;SDS011;9108;53.204;10.424;2024-03-17T18:01:29;8.40;;;1.95;;
17965;SDS011;9108;53.204;10.424;2024-03-17T18:03:57;11.15;;;1.80;;
17965;SDS011;9108;53.204;10.424;2024-03-17T18:06:26;6.47;;;1.60;;
17965;SDS011;9108;53.204;10.424;2024-03-17T18:08:54;9.82;;;1.75;;
17965;SDS011;9108;53.204;10.424;2024-03-17T18:11:22;10.85;;;1.80;;
17965;SDS011;9108;53.204;10.424;2024-03-17T18:13:51;8.50;;;1.85;;
17965;SDS011;9108;53.204;10.424;2024-03-17T18:16:21;10.68;;;1.80;;
17965;SDS011;9108;53.204;10.424;2024-03-17T18:18:50;9.48;;;1.85;;
17965;SDS011;9108;53.204;10.424;2024-03-17T18:21:19;8.45;;;1.67;;
17965;SDS011;9108;53.204;10.424;2024-03-17T18:23:47;8.95;;;2.05;;
17965;SDS011;9108;53.204;10.424;2024-03-17T18:26:15;9.82;;;2.20;;
17965;SDS011;9108;53.204;10.424;2024-03-17T18:28:47;10.30;;;1.80;;
17965;SDS011;9108;53.204;10.424;2024-03-17T18:34:12;7.25;;;1.63;;
17965;SDS011;9108;53.204;10.424;2024-03-17T18:36:39;10.63;;;2.13;;
17965;SDS011;9108;53.204;10.424;2024-03-17T18:39:08;8.87;;;3.33;;
17965;SDS011;9108;53.204;10.424;2024-03-17T18:41:36;11.35;;;2.60;;
17965;SDS011;9108;53.204;10.424;2024-03-17T18:44:03;8.98;;;2.30;;
17965;SDS011;9108;53.204;10.424;2024-03-17T18:46:37;6.68;;;2.22;;
17965;SDS011;9108;53.204;10.424;2024-03-17T18:49:14;11.40;;;2.63;;
17965;SDS011;9108;53.204;10.424;2024-03-17T18:51:43;11.45;;;3.50;;
17965;SDS011;9108;53.204;10.424;2024-03-17T18:54:12;11.50;;;3.40;;
17965;SDS011;9108;53.204;10.424;2024-03-17T18:56:40;12.18;;;4.28;;
17965;SDS011;9108;53.204;10.424;2024-03-17T18:59:22;8.98;;;2.58;;
17965;SDS011;9108;53.204;10.424;2024-03-17T19:01:49;8.32;;;2.22;;
17965;SDS011;9108;53.204;10.424;2024-03-17T19:04:20;9.30;;;2.10;;
17965;SDS011;9108;53.204;10.424;2024-03-17T19:06:49;7.00;;;2.10;;
17965;SDS011;9108;53.204;10.424;2024-03-17T19:09:19;6.72;;;2.00;;
17965;SDS011;9108;53.204;10.424;2024-03-17T19:11:49;7.65;;;2.15;;
17965;SDS011;9108;53.204;10.424;2024-03-17T19:14:25;6.32;;;1.95;;
17965;SDS011;9108;53.204;10.424;2024-03-17T19:16:53;7.55;;;2.25;;
17965;SDS011;9108;53.204;10.424;2024-03-17T19:19:23;7.20;;;2.47;;
17965;SDS011;9108;53.204;10.424;2024-03-17T19:22:02;10.73;;;2.33;;
17965;SDS011;9108;53.204;10.424;2024-03-17T19:24:32;6.30;;;2.40;;
17965;SDS011;9108;53.204;10.424;2024-03-17T19:27:06;6.05;;;2.35;;
17965;SDS011;9108;53.204;10.424;2024-03-17T19:29:36;5.72;;;2.15;;
17965;SDS011;9108;53.204;10.424;2024-03-17T19:32:04;8.35;;;2.58;;
17965;SDS011;9108;53.204;10.424;2024-03-17T19:34:34;7.63;;;2.50;;
17965;SDS011;9108;53.204;10.424;2024-03-17T19:37:02;6.85;;;2.60;;
17965;SDS011;9108;53.204;10.424;2024-03-17T19:39:30;6.80;;;2.20;;
17965;SDS011;9108;53.204;10.424;2024-03-17T19:41:57;6.35;;;2.00;;
17965;SDS011;9108;53.204;10.424;2024-03-17T19:44:26;5.97;;;2.10;;
17965;SDS011;9108;53.204;10.424;2024-03-17T19:46:54;5.07;;;2.00;;
17965;SDS011;9108;53.204;10.424;2024-03-17T19:49:22;4.40;;;1.60;;
17965;SDS011;9108;53.204;10.424;2024-03-17T19:51:50;5.20;;;1.60;;
17965;SDS011;9108;53.204;10.424;2024-03-17T19:54:18;5.15;;;1.80;;
17965;SDS011;9108;53.204;10.424;2024-03-17T19:56:45;4.97;;;1.60;;
17965;SDS011;9108;53.204;10.424;2024-03-17T19:59:12;5.90;;;1.60;;
17965;SDS011;9108;53.204;10.424;2024-03-17T20:01:39;6.47;;;1.70;;
17965;SDS011;9108;53.204;10.424;2024-03-17T20:04:06;7.70;;;2.65;;
17965;SDS011;9108;53.204;10.424;2024-03-17T20:06:34;12.73;;;5.10;;
17965;SDS011;9108;53.204;10.424;2024-03-17T20:09:02;10.27;;;3.97;;
17965;SDS011;9108;53.204;10.424;2024-03-17T20:11:30;5.22;;;1.50;;
17965;SDS011;9108;53.204;10.424;2024-03-17T20:13:57;6.13;;;1.95;;
17965;SDS011;9108;53.204;10.424;2024-03-17T20:16:24;6.72;;;2.38;;
17965;SDS011;9108;53.204;10.424;2024-03-17T20:18:52;6.05;;;1.70;;
17965;SDS011;9108;53.204;10.424;2024-03-17T20:21:20;4.45;;;1.75;;
17965;SDS011;9108;53.204;10.424;2024-03-17T20:23:47;4.97;;;1.55;;
17965;SDS011;9108;53.204;10.424;2024-03-17T20:26:17;3.38;;;1.50;;
17965;SDS011;9108;53.204;10.424;2024-03-17T20:28:44;4.25;;;1.52;;
17965;SDS011;9108;53.204;10.424;2024-03-17T20:31:16;6.00;;;1.80;;
17965;SDS011;9108;53.204;10.424;2024-03-17T20:33:43;4.22;;;1.75;;
17965;SDS011;9108;53.204;10.424;2024-03-17T20:36:12;6.27;;;2.63;;
17965;SDS011;9108;53.204;10.424;2024-03-17T20:38:40;5.60;;;2.43;;